Curran, Illinois
Current Conditions -  °F | °C
As of 6:52 AM on Sunday 23 Nov 2014 (Local Time) from KSPI Reporting Station
Overcast Overcast  
Wind Chill: 51°   Ceiling: 9500
Heat Index: 51°   Visibility: 10mi
Dew Point: 44°   Wind: 16mph
Humidity: 77%   Direction: 170°S
Pressure: 29.74"   Gusts: NA
Location:  39.7375°N, 89.904°W
Report Text: KSPI 231252Z 17014KT 10SM OVC095 11/07 A2974 RMK AO2 SLP072 T01060067
Loading
Personal Weather Stations






























Interactive Weather Map New forecast layout! Learn more

10-Day Weather Forecast

Advertisements
Track Severe Weather on mobile